Time;durP1;ratioP1;P1;durP2;ratioP2;P2;SDS_P1;SDS_P2;PMS_P1;PMS_P2;Temp;Humidity;BMP_temperature;BMP_pressure;BME280_temperature;BME280_humidity;BME280_pressure;Samples;Min_cycle;Max_cycle;Signal;HPM_P1;HPM_P2
2022/10/04 00:08:51;;;;;;;2.45;0.93;;;20.40;55.00;;;;;;20619973;28;20042;-69
2022/10/04 00:19:00;;;;;;;3.85;1.00;;;20.30;54.90;;;;;;20652495;28;20150;-72
2022/10/04 00:29:34;;;;;;;0.95;0.43;;;20.30;54.90;;;;;;20623051;28;20033;-72
2022/10/04 00:39:34;;;;;;;1.75;0.47;;;20.30;55.00;;;;;;20666529;28;20042;-71
2022/10/04 00:49:38;;;;;;;0.70;0.50;;;20.30;55.00;;;;;;20656625;28;20170;-71
2022/10/04 00:59:51;;;;;;;0.77;0.32;;;20.30;55.00;;;;;;20673392;28;20034;-72
2022/10/04 01:09:54;;;;;;;1.95;0.70;;;20.30;55.10;;;;;;20575447;28;20039;-70
2022/10/04 01:19:55;;;;;;;0.75;0.52;;;20.20;55.00;;;;;;20627234;28;20026;-73
2022/10/04 01:29:55;;;;;;;1.45;0.40;;;20.20;55.00;;;;;;20655399;28;20038;-71
2022/10/04 01:39:56;;;;;;;1.40;0.52;;;20.20;55.00;;;;;;20658216;28;20030;-73
2022/10/04 01:49:58;;;;;;;1.20;0.50;;;20.10;55.00;;;;;;21011926;23;20050;-70
2022/10/04 02:00:02;;;;;;;1.02;0.50;;;20.10;55.00;;;;;;20636566;28;20031;-70
2022/10/04 02:10:08;;;;;;;1.08;0.40;;;20.10;55.00;;;;;;20667407;28;20046;-71
2022/10/04 02:20:14;;;;;;;1.10;0.57;;;20.10;55.00;;;;;;20651490;28;20392;-70
2022/10/04 02:30:15;;;;;;;2.15;0.90;;;20.10;55.00;;;;;;20633547;28;20046;-71
2022/10/04 02:40:17;;;;;;;0.90;0.40;;;20.00;55.00;;;;;;20665783;28;20085;-71
2022/10/04 02:50:21;;;;;;;3.15;1.20;;;20.10;55.00;;;;;;20709972;28;20372;-71
2022/10/04 03:00:23;;;;;;;0.90;0.50;;;20.10;55.00;;;;;;20663959;28;20137;-71
2022/10/04 03:10:24;;;;;;;1.45;0.45;;;20.10;55.00;;;;;;20634973;28;20039;-71
2022/10/04 03:20:25;;;;;;;0.80;0.38;;;20.00;55.00;;;;;;20640949;28;20038;-73
2022/10/04 03:30:26;;;;;;;0.95;0.50;;;20.00;55.00;;;;;;20646326;28;20393;-69
2022/10/04 03:40:27;;;;;;;3.35;0.60;;;20.00;55.10;;;;;;20667459;28;20471;-71
2022/10/04 03:50:29;;;;;;;0.90;0.45;;;20.00;55.10;;;;;;20727248;28;20060;-73
2022/10/04 04:00:29;;;;;;;2.47;1.05;;;19.90;55.10;;;;;;20704198;28;20115;-74
2022/10/04 04:10:32;;;;;;;1.35;0.40;;;20.00;55.20;;;;;;20659545;28;20481;-73
2022/10/04 04:20:34;;;;;;;0.85;0.50;;;19.90;55.10;;;;;;20688425;28;20037;-72
2022/10/04 04:30:44;;;;;;;2.50;0.63;;;19.90;55.20;;;;;;20724372;28;20395;-76
2022/10/04 04:40:44;;;;;;;0.60;0.38;;;19.90;55.20;;;;;;20743456;28;20038;-75
2022/10/04 04:50:54;;;;;;;3.08;0.50;;;19.90;55.30;;;;;;20711036;28;20041;-79
2022/10/04 05:01:21;;;;;;;3.40;0.80;;;19.80;55.30;;;;;;20636249;28;20125;-80
2022/10/04 05:11:25;;;;;;;0.50;0.40;;;19.80;55.40;;;;;;20641656;28;20047;-73
2022/10/04 05:21:27;;;;;;;0.63;0.40;;;19.80;55.40;;;;;;20629232;28;20481;-75
2022/10/04 05:31:34;;;;;;;2.28;0.57;;;19.80;55.40;;;;;;20641871;28;20045;-76
2022/10/04 05:41:47;;;;;;;1.05;0.55;;;19.80;55.40;;;;;;20725463;28;20083;-74
2022/10/04 05:51:55;;;;;;;0.77;0.40;;;19.70;55.40;;;;;;20724647;28;20042;-74
2022/10/04 06:02:02;;;;;;;1.17;0.40;;;19.70;55.40;;;;;;20650905;28;20104;-74
2022/10/04 06:12:12;;;;;;;2.38;0.98;;;19.70;55.50;;;;;;20658194;28;20042;-75
2022/10/04 06:22:17;;;;;;;2.08;0.50;;;19.70;55.50;;;;;;20723862;28;20034;-79
2022/10/04 06:32:39;;;;;;;2.10;0.75;;;19.70;55.60;;;;;;20736533;28;20063;-73
2022/10/04 06:42:43;;;;;;;0.80;0.50;;;19.70;55.60;;;;;;20736503;28;20072;-76
2022/10/04 06:52:47;;;;;;;1.88;0.57;;;19.70;55.70;;;;;;20705290;28;20065;-74
2022/10/04 07:02:52;;;;;;;1.25;0.38;;;19.60;55.70;;;;;;20688921;28;20049;-73
2022/10/04 07:13:09;;;;;;;3.30;0.60;;;19.60;55.80;;;;;;20653019;28;20042;-74
2022/10/04 07:23:21;;;;;;;0.93;0.40;;;19.60;55.80;;;;;;20667578;28;20038;-73
2022/10/04 07:33:23;;;;;;;1.55;0.60;;;19.60;55.90;;;;;;20619814;28;20108;-73
2022/10/04 07:43:26;;;;;;;0.95;0.73;;;19.60;55.90;;;;;;20589771;28;20034;-74
2022/10/04 07:53:31;;;;;;;1.13;0.50;;;19.60;56.00;;;;;;20628515;28;20065;-73
2022/10/04 08:03:47;;;;;;;3.80;0.40;;;19.60;56.00;;;;;;20633582;28;20034;-74
2022/10/04 08:13:53;;;;;;;2.50;0.73;;;19.60;56.10;;;;;;20664423;28;20034;-73
2022/10/04 08:24:15;;;;;;;2.83;0.70;;;19.60;56.10;;;;;;20648905;28;20073;-73
2022/10/04 08:34:32;;;;;;;1.13;0.38;;;19.60;56.10;;;;;;20635396;28;20424;-74
2022/10/04 08:44:51;;;;;;;0.88;0.40;;;19.60;56.00;;;;;;20665290;28;20041;-73
2022/10/04 08:55:05;;;;;;;0.90;0.50;;;19.70;56.00;;;;;;20674974;28;20030;-74
2022/10/04 09:05:36;;;;;;;1.80;0.40;;;19.70;55.80;;;;;;20581742;28;20042;-73
2022/10/04 09:15:50;;;;;;;0.73;0.40;;;19.70;55.60;;;;;;20598056;28;20054;-74
2022/10/04 09:25:58;;;;;;;2.37;0.40;;;19.80;55.50;;;;;;20596809;28;20058;-73
2022/10/04 09:36:23;;;;;;;1.70;0.60;;;20.00;55.40;;;;;;20625574;28;20117;-74
2022/10/04 09:46:40;;;;;;;1.80;0.50;;;20.00;55.10;;;;;;20675388;28;20433;-74
2022/10/04 09:56:49;;;;;;;1.38;0.60;;;20.20;54.70;;;;;;20658622;28;20030;-73
2022/10/04 10:07:15;;;;;;;1.63;0.50;;;20.40;54.30;;;;;;20641999;28;20066;-74
2022/10/04 10:17:39;;;;;;;1.07;0.40;;;20.60;53.90;;;;;;20700273;28;20034;-76
2022/10/04 10:28:15;;;;;;;0.85;0.50;;;20.80;53.40;;;;;;20721504;28;20435;-73
2022/10/04 10:38:23;;;;;;;0.63;0.45;;;20.90;52.90;;;;;;20691136;28;20062;-75
2022/10/04 10:48:26;;;;;;;1.10;0.57;;;21.10;52.40;;;;;;20664788;28;20053;-73
2022/10/04 10:58:48;;;;;;;0.70;0.40;;;21.30;52.00;;;;;;20671606;28;20056;-74
2022/10/04 11:09:06;;;;;;;2.10;0.50;;;21.40;51.60;;;;;;20671058;28;20129;-73
2022/10/04 11:19:49;;;;;;;1.52;0.57;;;21.60;51.20;;;;;;20669095;28;20030;-77
2022/10/04 11:30:07;;;;;;;0.85;0.32;;;21.70;50.70;;;;;;20619465;28;20057;-71
2022/10/04 11:40:54;;;;;;;1.38;0.63;;;21.90;50.30;;;;;;20671384;28;20421;-73
2022/10/04 11:51:17;;;;;;;1.33;0.40;;;21.90;50.10;;;;;;20625080;28;20081;-72
2022/10/04 12:01:37;;;;;;;1.25;0.43;;;21.50;51.00;;;;;;20586324;28;20042;-71
2022/10/04 12:22:41;;;;;;;0.98;0.50;;;20.60;52.80;;;;;;20660791;28;20495;-77
2022/10/04 12:32:53;;;;;;;1.33;0.52;;;20.50;53.10;;;;;;20650671;28;20057;-74
2022/10/04 12:43:03;;;;;;;0.50;0.30;;;20.70;52.90;;;;;;20674561;28;20038;-69
2022/10/04 12:53:35;;;;;;;1.50;0.40;;;20.90;52.60;;;;;;20657734;28;20069;-73
2022/10/04 13:03:57;;;;;;;2.00;0.35;;;21.10;52.10;;;;;;20703868;28;20066;-72
2022/10/04 13:14:06;;;;;;;0.10;0.10;;;21.30;51.70;;;;;;20639688;28;20034;-68
2022/10/04 13:24:54;;;;;;;0.40;0.20;;;21.40;51.40;;;;;;20640007;28;20392;-69
2022/10/04 13:35:15;;;;;;;0.70;0.30;;;21.60;51.10;;;;;;20614979;28;20428;-70
2022/10/04 13:45:24;;;;;;;0.40;0.40;;;21.60;50.90;;;;;;20629999;28;20073;-69
2022/10/04 14:06:02;;;;;;;0.70;0.40;;;21.70;50.70;;;;;;20670596;28;20042;-73
2022/10/04 14:16:36;;;;;;;1.00;0.30;;;21.60;50.80;;;;;;20636669;28;20436;-73
2022/10/04 14:26:55;;;;;;;0.30;0.28;;;21.70;50.70;;;;;;20652632;28;20500;-74
2022/10/04 14:36:59;;;;;;;0.50;0.25;;;21.70;50.70;;;;;;20668996;28;20042;-78
2022/10/04 14:47:36;;;;;;;1.38;0.43;;;21.70;50.70;;;;;;20669878;28;20396;-76
2022/10/04 14:57:43;;;;;;;1.13;0.50;;;21.70;50.60;;;;;;20672707;28;20497;-76
2022/10/04 15:07:51;;;;;;;2.15;0.47;;;21.80;50.60;;;;;;20653222;28;20041;-81
2022/10/04 15:17:58;;;;;;;1.02;0.40;;;21.80;50.60;;;;;;20636234;28;20143;-74
2022/10/04 15:27:59;;;;;;;1.67;0.93;;;21.80;50.70;;;;;;20634233;28;20038;-78
2022/10/04 15:38:03;;;;;;;0.60;0.47;;;21.80;50.80;;;;;;20630610;28;20392;-75
2022/10/04 15:48:23;;;;;;;1.58;0.57;;;21.80;50.90;;;;;;20636403;28;20863;-75
2022/10/04 15:58:44;;;;;;;2.95;0.70;;;21.80;50.80;;;;;;20622853;28;20041;-75
2022/10/04 16:08:57;;;;;;;6.95;0.77;;;21.90;50.70;;;;;;20620638;28;20109;-75
2022/10/04 16:19:11;;;;;;;7.22;1.48;;;21.80;50.70;;;;;;20683735;28;20113;-74
2022/10/04 16:29:30;;;;;;;1.40;0.70;;;21.80;50.80;;;;;;20647490;28;20104;-75
2022/10/04 16:50:03;;;;;;;0.98;0.50;;;21.70;51.10;;;;;;20634844;28;20142;-72
2022/10/04 17:00:34;;;;;;;1.38;0.65;;;21.60;51.20;;;;;;20571519;28;20535;-73
2022/10/04 17:10:44;;;;;;;1.17;0.70;;;21.60;51.40;;;;;;20658005;28;20113;-73
2022/10/04 17:21:02;;;;;;;1.35;0.70;;;21.50;51.60;;;;;;20666015;28;20041;-76
2022/10/04 17:31:17;;;;;;;1.40;0.77;;;21.40;51.80;;;;;;20609596;28;20039;-75
2022/10/04 17:41:59;;;;;;;1.65;0.85;;;21.40;51.90;;;;;;20652081;28;20042;-78
2022/10/04 18:02:36;;;;;;;1.48;0.73;;;21.30;52.00;;;;;;20571780;28;20101;-77
2022/10/04 18:12:57;;;;;;;4.13;0.73;;;21.30;52.10;;;;;;20660541;28;20042;-75
2022/10/04 18:23:34;;;;;;;0.88;0.52;;;21.20;52.20;;;;;;20728749;28;20045;-77
2022/10/04 18:33:43;;;;;;;5.03;1.00;;;21.20;52.30;;;;;;20669263;28;20173;-75
2022/10/04 18:43:50;;;;;;;1.17;0.80;;;21.10;52.30;;;;;;20617104;28;20278;-76
2022/10/04 18:53:58;;;;;;;2.45;0.93;;;21.10;52.40;;;;;;20644549;28;20041;-75
2022/10/04 19:04:02;;;;;;;2.08;0.90;;;21.10;52.50;;;;;;20659717;28;20088;-74
2022/10/04 19:14:06;;;;;;;2.40;0.85;;;21.10;52.50;;;;;;20643680;28;20034;-74
2022/10/04 19:24:31;;;;;;;2.38;0.90;;;21.10;52.60;;;;;;20640126;28;20400;-75
2022/10/04 19:34:57;;;;;;;1.67;1.05;;;21.00;52.60;;;;;;20650850;28;20096;-74
2022/10/04 19:45:03;;;;;;;2.20;1.00;;;21.00;52.70;;;;;;20600523;28;20041;-75
2022/10/04 19:55:30;;;;;;;1.60;0.73;;;21.00;52.80;;;;;;20600699;28;20193;-74
2022/10/04 20:05:31;;;;;;;1.45;0.93;;;21.00;52.90;;;;;;20658455;28;20042;-74
2022/10/04 20:15:33;;;;;;;1.58;0.90;;;20.90;52.90;;;;;;20660618;28;20032;-76
2022/10/04 20:25:43;;;;;;;2.80;1.00;;;20.90;53.00;;;;;;20685543;28;20085;-76
2022/10/04 20:36:04;;;;;;;2.28;1.00;;;20.90;53.00;;;;;;20640756;28;20046;-74
2022/10/04 20:46:20;;;;;;;1.65;0.80;;;20.80;53.00;;;;;;20560130;28;20126;-76
2022/10/04 20:56:23;;;;;;;2.40;1.20;;;20.80;53.00;;;;;;20632077;28;20030;-76
2022/10/04 21:06:24;;;;;;;0.82;0.63;;;20.80;53.00;;;;;;20622807;28;20061;-74
2022/10/04 21:16:38;;;;;;;1.50;0.77;;;20.80;53.10;;;;;;20638161;28;20042;-75
2022/10/04 21:26:38;;;;;;;1.55;0.93;;;20.80;53.20;;;;;;20655990;28;20050;-75
2022/10/04 21:36:39;;;;;;;1.30;0.98;;;20.80;53.20;;;;;;20681751;28;20096;-74
2022/10/04 21:46:39;;;;;;;1.27;0.90;;;20.70;53.20;;;;;;20646018;28;20045;-74
2022/10/04 21:56:40;;;;;;;2.35;0.70;;;20.70;53.20;;;;;;20619473;28;20377;-74
2022/10/04 22:06:41;;;;;;;0.70;0.70;;;20.70;53.30;;;;;;20649690;28;20042;-74
2022/10/04 22:16:42;;;;;;;1.75;1.00;;;20.70;53.30;;;;;;20662587;28;20510;-74
2022/10/04 22:26:42;;;;;;;3.03;0.75;;;20.70;53.30;;;;;;20746013;28;20040;-73
2022/10/04 22:36:43;;;;;;;1.83;1.00;;;20.60;53.30;;;;;;20712904;28;20479;-73
2022/10/04 22:46:48;;;;;;;1.20;0.70;;;20.60;53.40;;;;;;20606747;28;20057;-74
2022/10/04 22:56:50;;;;;;;1.40;1.03;;;20.60;53.40;;;;;;20631108;28;20084;-74
2022/10/04 23:06:50;;;;;;;0.85;0.50;;;20.60;53.50;;;;;;20679355;28;20293;-74
2022/10/04 23:16:51;;;;;;;1.05;0.65;;;20.60;53.50;;;;;;20612031;28;20119;-74
2022/10/04 23:26:55;;;;;;;2.53;1.05;;;20.60;53.50;;;;;;20625893;28;20038;-73
2022/10/04 23:36:55;;;;;;;1.55;0.98;;;20.50;53.50;;;;;;20626641;28;20041;-75
2022/10/04 23:46:56;;;;;;;1.80;0.93;;;20.50;53.60;;;;;;20638076;28;20109;-75
2022/10/04 23:56:57;;;;;;;0.95;0.60;;;20.50;53.60;;;;;;20626367;28;20437;-74
